< < Back
Terminal Aerodrome Forecast


Current Version              Previous Versions:   1  2  3  4  5  6  7  8  9  

Terminal Aerodrome Forecast

190
FTUS42 KJAX 241300 AAA
TAFGNV
TAF AMD
KGNV 241304Z 2413/2512 VRB02KT 4SM BR SCT003 BKN060
      TEMPO 2413/2414 2SM BR OVC003
     FM241430 15006KT P6SM SCT050
     FM242100 21008KT P6SM VCSH BKN050=

Latest METAR

631
SAUS70 KWBC 241800 RRB
MTRGNV
METAR KGNV 241753Z 18009KT 10SM SCT050 28/16 A2998 RMK AO2 SLP151
T02780156 10289 20183 58015


USA.gov is the U.S. government's official web portal to all federal, state and local government web resources and services.